Time;durP1;ratioP1;P1;durP2;ratioP2;P2;SDS_P1;SDS_P2;PMS_P1;PMS_P2;Temp;Humidity;BMP_temperature;BMP_pressure;BME280_temperature;BME280_humidity;BME280_pressure;Samples;Min_cycle;Max_cycle;Signal;HPM_P1;HPM_P2
2023/11/13 07:05:39;;;;;;;335.40;241.65;;;24.50;96.90;;;;;;5061635;27;20394;-92
2023/11/13 07:41:11;;;;;;;115.45;81.80;;;24.20;95.20;;;;;;6105927;22;45830;31
2023/11/13 07:43:54;;;;;;;14.15;10.18;;;24.20;95.10;;;;;;4950669;28;47309;-91
2023/11/13 08:20:46;;;;;;;24.95;16.85;;;23.70;91.90;;;;;;5654686;22;45478;-91
2023/11/13 08:53:11;;;;;;;564.15;413.88;;;23.30;95.70;;;;;;4938273;28;45442;-89
2023/11/13 08:55:37;;;;;;;432.15;318.38;;;23.50;96.10;;;;;;4905822;28;45607;-87
2023/11/13 08:58:04;;;;;;;206.82;131.70;;;23.60;93.90;;;;;;4919703;28;45621;-87
2023/11/13 09:00:40;;;;;;;81.65;53.13;;;23.20;90.50;;;;;;4913396;28;48086;-85
2023/11/13 09:03:08;;;;;;;46.25;30.70;;;22.80;87.40;;;;;;4925186;28;45441;-89
2023/11/13 09:05:35;;;;;;;100.80;63.42;;;22.40;86.20;;;;;;4907797;28;45807;-88
2023/11/13 09:08:02;;;;;;;90.10;56.45;;;22.40;90.50;;;;;;4905381;29;45377;-87
2023/11/13 09:10:28;;;;;;;112.72;74.03;;;22.60;90.80;;;;;;4937277;28;47877;-86
2023/11/13 09:12:58;;;;;;;151.70;94.00;;;22.90;91.50;;;;;;4906329;28;45428;-87
2023/11/13 09:15:25;;;;;;;205.95;134.07;;;23.00;91.80;;;;;;4919442;28;45419;-84
2023/11/13 09:17:53;;;;;;;208.25;134.13;;;23.10;92.50;;;;;;4908029;28;45398;-85
2023/11/13 09:20:20;;;;;;;219.20;142.30;;;23.20;92.90;;;;;;4904975;28;46611;-85
2023/11/13 09:22:50;;;;;;;243.73;157.05;;;23.30;93.00;;;;;;4906597;29;45447;-86
2023/11/13 09:25:16;;;;;;;233.80;154.27;;;23.30;93.20;;;;;;4904774;28;45286;-85
2023/11/13 09:31:04;;;;;;;258.67;169.48;;;23.50;93.30;;;;;;4893397;28;45673;-84
2023/11/13 09:33:30;;;;;;;268.58;180.52;;;23.60;93.30;;;;;;4902339;28;45428;-90
2023/11/13 09:35:55;;;;;;;259.83;175.27;;;23.70;93.30;;;;;;4902179;28;45516;-86
2023/11/13 09:38:22;;;;;;;277.05;185.52;;;23.70;93.50;;;;;;4905359;28;45776;-84
2023/11/13 09:40:48;;;;;;;232.52;154.85;;;23.70;93.70;;;;;;4904635;28;46179;-89
2023/11/13 09:43:18;;;;;;;222.77;142.65;;;23.60;92.80;;;;;;4904817;28;45395;-88
2023/11/13 09:45:45;;;;;;;208.27;138.70;;;23.60;93.30;;;;;;4904426;28;45501;-90
2023/11/13 09:55:24;;;;;;;205.38;128.75;;;23.60;94.00;;;;;;4901224;28;45917;-93
2023/11/13 09:58:23;;;;;;;221.57;142.65;;;23.70;93.90;;;;;;4902921;28;45363;-92
2023/11/13 10:00:56;;;;;;;241.23;156.43;;;23.70;94.10;;;;;;4900709;28;45481;-93
2023/11/13 10:03:22;;;;;;;245.00;164.25;;;23.60;95.50;;;;;;4908173;28;47909;-89
2023/11/13 10:06:08;;;;;;;224.50;150.98;;;24.00;94.80;;;;;;4904786;28;45551;-91
2023/11/13 10:09:04;;;;;;;222.88;155.25;;;24.10;94.00;;;;;;4904191;28;45383;-89
2023/11/13 10:11:30;;;;;;;240.50;161.00;;;24.30;93.60;;;;;;4902615;28;45524;-92
2023/11/13 10:14:13;;;;;;;222.88;146.82;;;24.40;93.70;;;;;;4905585;28;46908;-91
2023/11/13 10:16:38;;;;;;;222.48;146.88;;;24.40;93.40;;;;;;4913770;28;46007;-91
2023/11/13 10:19:15;;;;;;;230.23;156.30;;;24.40;93.30;;;;;;4903535;29;45546;-89
2023/11/13 10:21:41;;;;;;;205.00;141.68;;;24.40;93.50;;;;;;4905654;28;45419;-91
2023/11/13 10:24:31;;;;;;;223.43;147.45;;;24.50;92.90;;;;;;4912092;28;46322;-91
2023/11/13 10:26:57;;;;;;;226.95;152.80;;;24.50;93.10;;;;;;4888399;28;45852;-92
2023/11/13 10:29:27;;;;;;;215.98;142.45;;;24.50;93.00;;;;;;4912044;28;45546;-92
2023/11/13 10:31:58;;;;;;;218.30;150.05;;;24.50;92.80;;;;;;4924000;28;45588;-92
2023/11/13 10:34:41;;;;;;;219.20;148.90;;;24.50;92.80;;;;;;4924078;28;46921;-92
2023/11/13 10:37:12;;;;;;;213.50;147.57;;;24.50;92.70;;;;;;4911296;28;45516;-90
2023/11/13 10:39:42;;;;;;;207.13;138.45;;;24.50;93.00;;;;;;4917535;28;45346;-90
2023/11/13 10:42:23;;;;;;;237.32;154.93;;;24.50;92.70;;;;;;4903380;28;45491;-88
2023/11/13 10:44:55;;;;;;;226.13;147.98;;;24.40;92.90;;;;;;4901589;28;47342;-88
2023/11/13 10:47:28;;;;;;;215.15;138.27;;;24.40;92.90;;;;;;4901660;28;45411;-93
2023/11/13 10:50:23;;;;;;;204.18;137.68;;;24.30;92.90;;;;;;4903386;28;45654;-93
2023/11/13 10:53:19;;;;;;;239.32;160.52;;;24.40;93.10;;;;;;4895303;28;45516;-92
2023/11/13 10:55:59;;;;;;;229.25;151.32;;;24.30;93.10;;;;;;4902503;28;46310;-92
2023/11/13 10:58:26;;;;;;;222.00;150.02;;;24.20;93.10;;;;;;4915479;28;45425;-91
2023/11/13 11:00:52;;;;;;;202.60;136.60;;;24.10;93.10;;;;;;4916406;28;45497;-89
2023/11/13 11:03:24;;;;;;;202.77;140.38;;;24.10;93.00;;;;;;4921702;28;45467;-86
2023/11/13 11:05:54;;;;;;;209.52;142.95;;;24.20;93.00;;;;;;4902684;28;45477;-90
2023/11/13 11:08:25;;;;;;;211.68;142.32;;;24.20;93.00;;;;;;4902350;29;46236;-89
2023/11/13 11:14:29;;;;;;;214.55;140.88;;;24.30;92.90;;;;;;4921016;28;45467;-95
2023/11/13 11:17:14;;;;;;;195.18;128.70;;;24.20;92.90;;;;;;4883092;29;47639;-92
2023/11/13 11:19:49;;;;;;;225.65;146.40;;;24.20;92.80;;;;;;4912835;28;45700;-91
2023/11/13 11:22:43;;;;;;;165.25;112.18;;;24.20;92.90;;;;;;4917626;28;45433;-89
2023/11/13 11:25:31;;;;;;;172.48;107.55;;;24.30;92.80;;;;;;4896901;28;45545;-91
2023/11/13 11:28:02;;;;;;;187.30;119.78;;;24.30;92.60;;;;;;4902860;28;47971;-91
2023/11/13 11:50:12;;;;;;;198.60;132.65;;;23.80;92.80;;;;;;5904580;23;46990;-90
2023/11/13 11:52:40;;;;;;;92.88;59.05;;;23.80;93.00;;;;;;4871614;29;45476;-90
2023/11/13 11:55:06;;;;;;;52.78;36.72;;;23.60;90.40;;;;;;4866582;29;45499;-91
2023/11/13 11:58:21;;;;;;;47.80;31.60;;;23.20;90.20;;;;;;4863216;29;45583;-93
2023/11/13 12:00:55;;;;;;;83.68;52.38;;;22.90;91.00;;;;;;4894480;28;48466;-90
2023/11/13 12:03:22;;;;;;;106.55;68.57;;;23.00;91.40;;;;;;4878126;29;45488;-91
2023/11/13 12:05:50;;;;;;;105.43;72.18;;;23.20;91.80;;;;;;4869669;29;45891;-91
2023/11/13 12:08:15;;;;;;;119.25;79.35;;;23.30;91.70;;;;;;4871316;29;45490;-89
2023/11/13 12:10:42;;;;;;;111.10;72.22;;;23.30;91.60;;;;;;4869286;29;48185;-90
2023/11/13 12:31:17;;;;;;;106.22;64.47;;;22.60;92.30;;;;;;5318380;23;45999;-86
2023/11/13 12:33:46;;;;;;;140.40;90.13;;;22.80;93.00;;;;;;4923026;28;45397;-86
2023/11/13 12:36:13;;;;;;;172.80;111.57;;;23.10;93.00;;;;;;4904381;28;45609;-86
2023/11/13 12:38:39;;;;;;;183.18;118.63;;;23.30;92.90;;;;;;4905710;28;45278;-86
2023/11/13 12:41:05;;;;;;;219.00;140.45;;;23.40;93.00;;;;;;4925089;28;45691;-85
2023/11/13 12:43:31;;;;;;;211.05;141.18;;;23.60;93.30;;;;;;4923095;28;45561;-87
2023/11/13 12:45:57;;;;;;;223.40;147.98;;;23.80;93.00;;;;;;4922442;28;45406;-87
2023/11/13 12:48:22;;;;;;;237.55;158.15;;;23.80;92.80;;;;;;4910141;28;45711;-85
2023/11/13 12:50:48;;;;;;;262.70;175.82;;;23.70;93.00;;;;;;4905999;28;54446;-86
2023/11/13 12:53:18;;;;;;;260.73;171.23;;;23.70;93.90;;;;;;4904414;28;45918;-88
2023/11/13 13:14:17;;;;;;;150.68;98.82;;;23.20;92.70;;;;;;5144541;27;45453;-90
2023/11/13 13:16:44;;;;;;;186.70;121.88;;;23.20;92.10;;;;;;5166404;27;45815;-89
2023/11/13 13:19:10;;;;;;;195.80;128.35;;;23.20;92.50;;;;;;5164663;27;45341;-91
2023/11/13 13:21:36;;;;;;;147.80;100.03;;;23.20;92.60;;;;;;5159790;27;45678;-92
2023/11/13 13:24:06;;;;;;;156.65;102.53;;;23.20;92.10;;;;;;5142976;27;47331;-91
2023/11/13 13:26:33;;;;;;;151.68;105.07;;;23.20;92.20;;;;;;5152119;27;45518;-92
2023/11/13 13:28:58;;;;;;;178.52;116.28;;;23.20;92.20;;;;;;5162736;27;45507;-92
2023/11/13 13:31:24;;;;;;;170.38;116.47;;;23.10;92.30;;;;;;5139910;27;45435;-90
2023/11/13 13:33:52;;;;;;;186.70;121.70;;;23.10;92.30;;;;;;5152163;27;46783;-91
2023/11/13 13:36:19;;;;;;;183.02;122.75;;;23.10;92.30;;;;;;5136432;27;45441;-91
2023/11/13 13:59:54;;;;;;;201.18;135.85;;;23.80;91.70;;;;;;5026624;28;45502;-96
2023/11/13 14:02:31;;;;;;;245.43;161.32;;;23.80;91.70;;;;;;5022704;28;45836;-93
2023/11/13 14:04:56;;;;;;;253.98;169.85;;;23.50;92.50;;;;;;5115935;27;45450;-91
2023/11/13 14:07:36;;;;;;;241.82;155.10;;;23.30;92.70;;;;;;5104329;27;45590;-93
2023/11/13 14:10:02;;;;;;;247.95;162.90;;;23.20;92.50;;;;;;5140946;27;47484;-91
2023/11/13 14:12:29;;;;;;;233.70;160.18;;;23.20;92.80;;;;;;5138282;27;45452;-91
2023/11/13 14:14:57;;;;;;;239.73;165.18;;;23.10;93.20;;;;;;5123191;27;45972;-91
2023/11/13 14:18:29;;;;;;;244.52;166.50;;;23.10;93.00;;;;;;5125622;27;45500;-92
2023/11/13 14:25:09;;;;;;;280.30;188.02;;;23.10;93.20;;;;;;5079521;27;45485;-93
2023/11/13 14:27:41;;;;;;;195.75;134.90;;;23.10;93.40;;;;;;5073112;28;45459;-91
2023/11/13 14:30:08;;;;;;;224.32;150.73;;;22.20;92.50;;;;;;5054423;28;45417;-93
2023/11/13 14:32:47;;;;;;;232.70;154.32;;;21.70;94.30;;;;;;5060492;27;48039;-95
2023/11/13 14:35:16;;;;;;;241.27;161.07;;;21.80;94.30;;;;;;5051254;28;45548;-93
2023/11/13 14:38:07;;;;;;;237.88;161.80;;;22.00;94.20;;;;;;5101571;27;45350;-94
2023/11/13 14:40:42;;;;;;;259.13;170.57;;;22.20;94.20;;;;;;5125225;27;45460;-95
2023/11/13 14:43:07;;;;;;;259.55;170.82;;;22.30;94.10;;;;;;5111632;27;47176;-92
2023/11/13 14:45:33;;;;;;;247.00;173.07;;;22.40;94.10;;;;;;5109132;27;45531;-93
2023/11/13 14:56:09;;;;;;;;;;;;;;;;;;;;;
2023/11/13 15:12:55;;;;;;;;;;;;;;;;;;;;;
2023/11/13 15:22:49;;;;;;;154.48;103.20;;;22.80;93.10;;;;;;5021407;28;45445;-96
2023/11/13 15:56:30;;;;;;;101.07;74.25;;;23.00;92.60;;;;;;5040981;28;46527;-92
2023/11/13 15:58:56;;;;;;;126.97;85.63;;;23.00;92.60;;;;;;4991844;28;45626;-92
2023/11/13 16:01:58;;;;;;;146.13;103.07;;;23.00;92.70;;;;;;4983275;28;46902;-93
2023/11/13 16:05:31;;;;;;;175.07;120.05;;;23.00;92.90;;;;;;4977963;28;45673;-92
2023/11/13 16:08:08;;;;;;;212.40;141.43;;;23.00;93.20;;;;;;4990807;28;46151;-92
2023/11/13 16:11:26;;;;;;;;;;;;;;;;;;;;;
2023/11/13 16:14:25;;;;;;;;;;;;;;;;;;;;;
2023/11/13 16:17:04;;;;;;;256.73;173.93;;;23.00;93.90;;;;;;4979708;28;66093;-93
2023/11/13 16:19:30;;;;;;;273.80;179.95;;;23.00;94.20;;;;;;4974801;28;47188;-91
2023/11/13 16:21:56;;;;;;;261.92;175.82;;;23.10;94.50;;;;;;4985010;28;46890;-92
2023/11/13 16:24:22;;;;;;;251.95;170.48;;;23.00;94.30;;;;;;4976558;28;45615;-93
2023/11/13 16:27:05;;;;;;;222.43;153.02;;;23.00;94.10;;;;;;4975859;28;45538;-93
2023/11/13 16:29:35;;;;;;;215.25;145.65;;;23.00;93.90;;;;;;4995583;28;47624;-93
2023/11/13 16:32:27;;;;;;;203.00;138.25;;;23.00;93.90;;;;;;4998730;28;45230;-93
2023/11/13 16:34:53;;;;;;;187.32;130.18;;;23.10;93.80;;;;;;4987342;28;45482;-91
2023/11/13 16:37:21;;;;;;;178.13;122.50;;;23.10;93.70;;;;;;4979516;28;45507;-93
2023/11/13 16:39:46;;;;;;;176.75;126.47;;;23.00;93.60;;;;;;4991479;28;47366;-92
2023/11/13 16:42:12;;;;;;;163.85;114.18;;;23.00;93.50;;;;;;4990375;28;45460;-91
2023/11/13 16:44:38;;;;;;;169.82;118.32;;;23.00;93.30;;;;;;4975520;28;45372;-92
2023/11/13 16:47:06;;;;;;;157.48;108.30;;;23.10;93.30;;;;;;4994638;28;45700;-92
2023/11/13 16:49:37;;;;;;;142.85;103.18;;;23.00;93.30;;;;;;4992019;28;47247;-92
2023/11/13 16:52:03;;;;;;;144.13;100.05;;;23.10;93.20;;;;;;4986838;28;45999;-90
2023/11/13 16:54:31;;;;;;;133.70;93.03;;;23.10;93.20;;;;;;4994413;28;45429;-92
2023/11/13 16:56:57;;;;;;;134.60;89.70;;;23.10;93.10;;;;;;4995000;28;45418;-91
2023/11/13 16:59:28;;;;;;;119.22;84.63;;;23.10;93.00;;;;;;5000511;28;47133;-91
2023/11/13 17:01:55;;;;;;;;;;;23.10;93.00;;;;;;4996326;28;45530;-93
2023/11/13 17:04:23;;;;;;;118.03;79.18;;;23.10;92.90;;;;;;4990808;28;45428;-92
2023/11/13 17:06:51;;;;;;;107.30;77.43;;;23.10;92.90;;;;;;4979610;28;45402;-92
2023/11/13 17:09:20;;;;;;;100.22;73.03;;;23.10;92.80;;;;;;4982121;28;45806;-92
2023/11/13 17:11:53;;;;;;;100.88;69.93;;;23.10;92.80;;;;;;4987407;28;45467;-93
2023/11/13 17:14:52;;;;;;;97.30;67.63;;;23.10;92.70;;;;;;4974887;28;45481;-92
2023/11/13 17:17:26;;;;;;;87.80;62.78;;;23.00;92.90;;;;;;5015249;28;45532;-93
2023/11/13 17:24:21;;;;;;;75.85;56.05;;;23.10;92.60;;;;;;4946503;28;45624;-92
2023/11/13 17:27:34;;;;;;;74.50;53.83;;;23.10;92.70;;;;;;4973405;28;45470;-92
2023/11/13 17:34:38;;;;;;;67.15;49.67;;;23.10;92.30;;;;;;4953797;28;45841;-92
2023/11/13 17:43:55;;;;;;;54.13;40.20;;;23.10;92.20;;;;;;4951243;28;45437;-93
2023/11/13 17:50:37;;;;;;;51.63;38.15;;;23.10;92.10;;;;;;4971878;28;45522;-94
2023/11/13 17:53:25;;;;;;;46.38;34.33;;;23.10;92.10;;;;;;4979302;28;45476;-94
2023/11/13 17:56:52;;;;;;;46.47;34.95;;;23.10;92.10;;;;;;4993095;28;45350;-92
2023/11/13 17:59:04;;;;;;;43.85;34.20;;;23.10;92.00;;;;;;4990423;28;46092;-92
2023/11/13 18:02:01;;;;;;;42.05;32.25;;;23.10;92.00;;;;;;4995009;28;45444;-92
2023/11/13 18:04:30;;;;;;;37.80;30.10;;;23.10;92.00;;;;;;4982893;28;45407;-92
2023/11/13 18:07:47;;;;;;;37.20;29.35;;;23.10;91.90;;;;;;4983152;28;45510;-92
2023/11/13 18:14:18;;;;;;;35.45;26.50;;;23.10;91.90;;;;;;4973620;28;45331;-92
2023/11/13 18:17:32;;;;;;;34.03;26.98;;;23.10;91.90;;;;;;4986955;28;45614;-93
2023/11/13 18:24:26;;;;;;;65.53;33.37;;;23.20;91.80;;;;;;5075828;27;45405;-83
2023/11/13 18:26:52;;;;;;;86.10;49.20;;;23.20;92.80;;;;;;5077795;27;45437;-83
2023/11/13 18:29:18;;;;;;;132.35;82.22;;;23.10;92.90;;;;;;5084781;27;45424;-83
2023/11/13 18:31:44;;;;;;;124.65;77.70;;;23.10;93.30;;;;;;5090787;27;45345;-84
2023/11/13 18:34:11;;;;;;;132.82;86.07;;;23.00;93.30;;;;;;5078341;27;45666;-84
2023/11/13 18:36:36;;;;;;;148.40;98.10;;;23.00;93.50;;;;;;5067650;27;45364;-83
2023/11/13 18:39:05;;;;;;;160.50;101.43;;;22.90;93.60;;;;;;5077353;27;45285;-84
2023/11/13 18:41:30;;;;;;;174.20;111.65;;;22.90;93.80;;;;;;5087036;27;45582;-83
2023/11/13 18:43:56;;;;;;;171.80;117.20;;;22.80;93.90;;;;;;5085002;27;46846;-82
2023/11/13 18:46:24;;;;;;;195.45;129.50;;;22.80;94.00;;;;;;5080543;27;45460;-82
2023/11/13 18:48:50;;;;;;;66.05;44.03;;;22.80;94.40;;;;;;5091029;27;45439;-81
2023/11/13 18:51:16;;;;;;;151.02;103.32;;;22.80;93.20;;;;;;5080240;27;45447;-82
2023/11/13 18:53:42;;;;;;;161.10;106.65;;;22.60;94.60;;;;;;5080590;27;47329;-83
